Overview Statistics Trail Chart Weather Telemetry Raw packets
 

This is the latest recevied weather packets stored in our database for station/object K8RRT. If no packets are shown the sender has not sent any weather packets the latest 10 day(s).

<< 59 60 61 62 63 64 65 >>
Time Temp. Humidity Pressure Rain* Wind** Luminosity Snow
1788213560 32.22° C 71% 1014.2 hPa 0 mm - 183 W/m² -
1788213255 31.11° C 73% 1014.2 hPa 0 mm - 148 W/m² -
1788212951 31.11° C 74% 1014.3 hPa 0 mm - 266 W/m² -
1788212649 31.11° C 72% 1014.5 hPa 0 mm - 171 W/m² -
1788212344 31.67° C 73% 1014.4 hPa 0 mm - 139 W/m² -
1788212041 31.67° C 69% 1014.5 hPa 0 mm - 133 W/m² -
1788211735 32.78° C 65% 1014.5 hPa 0 mm - 140 W/m² -
1788211432 33.33° C 66% 1014.5 hPa 0 mm - 211 W/m² -
1788211130 33.33° C 65% 1014.8 hPa 0 mm - 266 W/m² -
1788210825 33.33° C 66% 1014.4 hPa 0 mm - 451 W/m² -
1788210525 33.33° C 66% 1014.5 hPa 0 mm - 443 W/m² -
1788210221 32.78° C 68% 1014.5 hPa 0 mm - 298 W/m² -
1788209916 32.78° C 68% 1014.4 hPa 0 mm - 365 W/m² -
1788209611 33.33° C 68% 1014.4 hPa 0 mm - 322 W/m² -
1788209306 33.89° C 62% 1014.6 hPa 0 mm - 386 W/m² -
1788209005 33.33° C 64% 1014.5 hPa 0 mm - 435 W/m² -
1788208704 32.78° C 64% 1014.7 hPa 0 mm - 482 W/m² -
1788208399 32.78° C 63% 1014.6 hPa 0 mm - 409 W/m² -
1788208097 33.33° C 62% 1014.8 hPa 0 mm - 418 W/m² -
1788207792 32.78° C 65% 1014.6 hPa 0 mm - 511 W/m² -
1788207487 32.78° C 66% 1014.8 hPa 0 mm - 484 W/m² -
1788207185 31.11° C 70% 1014.9 hPa 0 mm - 587 W/m² -
1788206882 31.67° C 72% 1014.9 hPa 0 mm - 167 W/m² -
1788206576 31.67° C 67% 1014.7 hPa 0 mm - 216 W/m² -
1788206272 31.67° C 69% 1014.8 hPa 0 mm - 509 W/m² -

* Rain latest hour (hover to see other rain measurements)
** Current wind speed in m/s (hover to see current wind gust speed)